sensor_id;sensor_type;location;lat;lon;timestamp;temperature;humidity
6377;DHT22;3221;48.858;10.128;2023-03-26T00:01:21;7.20;99.90
6377;DHT22;3221;48.858;10.128;2023-03-26T00:03:49;7.20;99.90
6377;DHT22;3221;48.858;10.128;2023-03-26T00:06:25;7.20;99.90
6377;DHT22;3221;48.858;10.128;2023-03-26T00:08:53;7.40;99.90
6377;DHT22;3221;48.858;10.128;2023-03-26T00:11:22;7.20;99.90
6377;DHT22;3221;48.858;10.128;2023-03-26T00:13:49;7.30;99.90
6377;DHT22;3221;48.858;10.128;2023-03-26T00:16:19;7.20;99.90
6377;DHT22;3221;48.858;10.128;2023-03-26T00:18:46;7.20;99.90
6377;DHT22;3221;48.858;10.128;2023-03-26T00:21:16;7.20;99.90
6377;DHT22;3221;48.858;10.128;2023-03-26T00:23:43;7.30;99.90
6377;DHT22;3221;48.858;10.128;2023-03-26T00:26:10;7.20;99.90
6377;DHT22;3221;48.858;10.128;2023-03-26T00:28:39;7.20;99.90
6377;DHT22;3221;48.858;10.128;2023-03-26T00:31:09;7.20;99.90
6377;DHT22;3221;48.858;10.128;2023-03-26T00:33:37;7.30;99.90
6377;DHT22;3221;48.858;10.128;2023-03-26T00:36:12;7.20;99.90
6377;DHT22;3221;48.858;10.128;2023-03-26T00:38:41;7.30;99.90
6377;DHT22;3221;48.858;10.128;2023-03-26T00:41:10;7.10;99.90
6377;DHT22;3221;48.858;10.128;2023-03-26T00:43:59;7.30;99.90
6377;DHT22;3221;48.858;10.128;2023-03-26T00:46:28;7.30;99.90
6377;DHT22;3221;48.858;10.128;2023-03-26T00:48:56;7.20;99.90
6377;DHT22;3221;48.858;10.128;2023-03-26T00:51:24;7.20;99.90
6377;DHT22;3221;48.858;10.128;2023-03-26T00:53:52;7.20;99.90
6377;DHT22;3221;48.858;10.128;2023-03-26T00:56:19;7.10;99.90
6377;DHT22;3221;48.858;10.128;2023-03-26T00:58:46;7.20;99.90
6377;DHT22;3221;48.858;10.128;2023-03-26T01:01:22;7.10;99.90
6377;DHT22;3221;48.858;10.128;2023-03-26T01:03:56;7.10;99.90
6377;DHT22;3221;48.858;10.128;2023-03-26T01:06:36;7.00;99.90
6377;DHT22;3221;48.858;10.128;2023-03-26T01:09:14;7.20;99.90
6377;DHT22;3221;48.858;10.128;2023-03-26T01:11:42;7.10;99.90
6377;DHT22;3221;48.858;10.128;2023-03-26T01:14:12;7.20;99.90
6377;DHT22;3221;48.858;10.128;2023-03-26T01:22:19;7.10;99.90
6377;DHT22;3221;48.858;10.128;2023-03-26T01:24:46;7.10;99.90
6377;DHT22;3221;48.858;10.128;2023-03-26T01:30:16;7.10;99.90
6377;DHT22;3221;48.858;10.128;2023-03-26T01:41:22;7.00;99.90
6377;DHT22;3221;48.858;10.128;2023-03-26T01:46:59;7.00;99.90
6377;DHT22;3221;48.858;10.128;2023-03-26T01:49:30;7.00;99.90
6377;DHT22;3221;48.858;10.128;2023-03-26T01:51:57;7.20;99.90
6377;DHT22;3221;48.858;10.128;2023-03-26T01:54:28;6.90;99.90
6377;DHT22;3221;48.858;10.128;2023-03-26T02:00:24;6.90;99.90
6377;DHT22;3221;48.858;10.128;2023-03-26T02:03:03;6.90;99.90
6377;DHT22;3221;48.858;10.128;2023-03-26T02:05:44;7.00;99.90
6377;DHT22;3221;48.858;10.128;2023-03-26T02:11:06;6.90;99.90
6377;DHT22;3221;48.858;10.128;2023-03-26T02:13:42;6.90;99.90
6377;DHT22;3221;48.858;10.128;2023-03-26T02:16:12;6.80;99.90
6377;DHT22;3221;48.858;10.128;2023-03-26T02:18:40;6.80;99.90
6377;DHT22;3221;48.858;10.128;2023-03-26T02:21:13;6.70;99.90
6377;DHT22;3221;48.858;10.128;2023-03-26T02:23:42;6.70;99.90
6377;DHT22;3221;48.858;10.128;2023-03-26T02:26:14;6.70;99.90
6377;DHT22;3221;48.858;10.128;2023-03-26T02:28:54;6.90;99.90
6377;DHT22;3221;48.858;10.128;2023-03-26T02:31:22;6.60;99.90
6377;DHT22;3221;48.858;10.128;2023-03-26T02:33:53;6.70;99.90
6377;DHT22;3221;48.858;10.128;2023-03-26T02:36:22;6.60;99.90
6377;DHT22;3221;48.858;10.128;2023-03-26T02:38:56;6.60;99.90
6377;DHT22;3221;48.858;10.128;2023-03-26T02:41:28;6.70;99.90
6377;DHT22;3221;48.858;10.128;2023-03-26T02:43:59;6.70;99.90
6377;DHT22;3221;48.858;10.128;2023-03-26T02:46:49;6.70;99.90
6377;DHT22;3221;48.858;10.128;2023-03-26T02:49:36;6.60;99.90
6377;DHT22;3221;48.858;10.128;2023-03-26T02:52:03;6.60;99.90
6377;DHT22;3221;48.858;10.128;2023-03-26T02:54:34;6.60;99.90
6377;DHT22;3221;48.858;10.128;2023-03-26T02:57:22;6.60;99.90
6377;DHT22;3221;48.858;10.128;2023-03-26T03:00:03;6.50;99.90
6377;DHT22;3221;48.858;10.128;2023-03-26T03:02:34;6.50;99.90
6377;DHT22;3221;48.858;10.128;2023-03-26T03:05:36;6.40;99.90
6377;DHT22;3221;48.858;10.128;2023-03-26T03:08:22;6.40;99.90
6377;DHT22;3221;48.858;10.128;2023-03-26T03:11:01;6.40;99.90
6377;DHT22;3221;48.858;10.128;2023-03-26T03:13:48;6.30;99.90
6377;DHT22;3221;48.858;10.128;2023-03-26T03:16:18;6.30;99.90
6377;DHT22;3221;48.858;10.128;2023-03-26T03:18:46;6.30;99.90
6377;DHT22;3221;48.858;10.128;2023-03-26T03:21:25;6.30;99.90
6377;DHT22;3221;48.858;10.128;2023-03-26T03:23:54;6.20;99.90
6377;DHT22;3221;48.858;10.128;2023-03-26T03:26:25;6.30;99.90
6377;DHT22;3221;48.858;10.128;2023-03-26T03:28:54;6.20;99.90
6377;DHT22;3221;48.858;10.128;2023-03-26T03:31:24;6.30;99.90
6377;DHT22;3221;48.858;10.128;2023-03-26T03:33:54;6.30;99.90
6377;DHT22;3221;48.858;10.128;2023-03-26T03:36:23;6.30;99.90
6377;DHT22;3221;48.858;10.128;2023-03-26T03:39:01;6.40;99.90
6377;DHT22;3221;48.858;10.128;2023-03-26T03:41:29;6.30;99.90
6377;DHT22;3221;48.858;10.128;2023-03-26T03:43:58;6.30;99.90
6377;DHT22;3221;48.858;10.128;2023-03-26T03:46:29;6.20;99.90
6377;DHT22;3221;48.858;10.128;2023-03-26T03:48:56;6.20;99.90
6377;DHT22;3221;48.858;10.128;2023-03-26T03:51:34;6.20;99.90
6377;DHT22;3221;48.858;10.128;2023-03-26T03:54:04;6.10;99.90
6377;DHT22;3221;48.858;10.128;2023-03-26T03:56:54;6.20;99.90
6377;DHT22;3221;48.858;10.128;2023-03-26T03:59:36;6.10;99.90
6377;DHT22;3221;48.858;10.128;2023-03-26T04:02:06;6.10;99.90
6377;DHT22;3221;48.858;10.128;2023-03-26T04:04:47;6.10;99.90
6377;DHT22;3221;48.858;10.128;2023-03-26T04:07:18;6.10;99.90
6377;DHT22;3221;48.858;10.128;2023-03-26T04:10:07;6.10;99.90
6377;DHT22;3221;48.858;10.128;2023-03-26T04:12:53;6.10;99.90
6377;DHT22;3221;48.858;10.128;2023-03-26T04:15:35;6.20;99.90
6377;DHT22;3221;48.858;10.128;2023-03-26T04:18:03;6.10;99.90
6377;DHT22;3221;48.858;10.128;2023-03-26T04:20:30;6.10;99.90
6377;DHT22;3221;48.858;10.128;2023-03-26T04:22:58;6.00;99.90
6377;DHT22;3221;48.858;10.128;2023-03-26T04:25:26;6.10;99.90
6377;DHT22;3221;48.858;10.128;2023-03-26T04:28:06;6.10;99.90
6377;DHT22;3221;48.858;10.128;2023-03-26T04:30:49;6.10;99.90
6377;DHT22;3221;48.858;10.128;2023-03-26T04:33:39;6.10;99.90
6377;DHT22;3221;48.858;10.128;2023-03-26T04:36:07;6.10;99.90
6377;DHT22;3221;48.858;10.128;2023-03-26T04:38:42;6.10;99.90
6377;DHT22;3221;48.858;10.128;2023-03-26T04:41:12;6.10;99.90
6377;DHT22;3221;48.858;10.128;2023-03-26T04:43:49;6.10;99.90
6377;DHT22;3221;48.858;10.128;2023-03-26T04:46:35;6.10;99.90
6377;DHT22;3221;48.858;10.128;2023-03-26T04:49:09;6.10;99.90
6377;DHT22;3221;48.858;10.128;2023-03-26T04:51:38;6.10;99.90
6377;DHT22;3221;48.858;10.128;2023-03-26T04:54:21;6.10;99.90
6377;DHT22;3221;48.858;10.128;2023-03-26T04:56:59;6.10;99.90
6377;DHT22;3221;48.858;10.128;2023-03-26T04:59:40;6.00;99.90
6377;DHT22;3221;48.858;10.128;2023-03-26T05:02:12;6.10;99.90
6377;DHT22;3221;48.858;10.128;2023-03-26T05:04:50;6.10;99.90
6377;DHT22;3221;48.858;10.128;2023-03-26T05:07:20;6.10;99.90
6377;DHT22;3221;48.858;10.128;2023-03-26T05:09:53;6.10;99.90
6377;DHT22;3221;48.858;10.128;2023-03-26T05:12:34;6.20;99.90
6377;DHT22;3221;48.858;10.128;2023-03-26T05:15:06;6.10;99.90
6377;DHT22;3221;48.858;10.128;2023-03-26T05:17:59;6.10;99.90
6377;DHT22;3221;48.858;10.128;2023-03-26T05:20:49;6.10;99.90
6377;DHT22;3221;48.858;10.128;2023-03-26T05:23:16;6.10;99.90
6377;DHT22;3221;48.858;10.128;2023-03-26T05:25:49;6.00;99.90
6377;DHT22;3221;48.858;10.128;2023-03-26T05:28:19;6.10;99.90
6377;DHT22;3221;48.858;10.128;2023-03-26T05:30:54;6.10;99.90
6377;DHT22;3221;48.858;10.128;2023-03-26T05:33:23;6.10;99.90
6377;DHT22;3221;48.858;10.128;2023-03-26T05:36:09;6.30;99.90
6377;DHT22;3221;48.858;10.128;2023-03-26T05:38:41;6.20;99.90
6377;DHT22;3221;48.858;10.128;2023-03-26T05:41:17;6.20;99.90
6377;DHT22;3221;48.858;10.128;2023-03-26T05:43:45;6.30;99.90
6377;DHT22;3221;48.858;10.128;2023-03-26T05:46:18;6.40;99.90
6377;DHT22;3221;48.858;10.128;2023-03-26T05:48:48;6.50;99.90
6377;DHT22;3221;48.858;10.128;2023-03-26T05:51:15;6.50;99.90
6377;DHT22;3221;48.858;10.128;2023-03-26T05:53:49;6.50;99.90
6377;DHT22;3221;48.858;10.128;2023-03-26T05:56:34;6.50;99.90
6377;DHT22;3221;48.858;10.128;2023-03-26T05:59:20;6.60;99.90
6377;DHT22;3221;48.858;10.128;2023-03-26T06:02:16;6.60;99.90
6377;DHT22;3221;48.858;10.128;2023-03-26T06:05:15;6.50;99.90
6377;DHT22;3221;48.858;10.128;2023-03-26T06:08:03;6.50;99.90
6377;DHT22;3221;48.858;10.128;2023-03-26T06:10:38;6.30;99.90
6377;DHT22;3221;48.858;10.128;2023-03-26T06:13:05;6.10;99.90
6377;DHT22;3221;48.858;10.128;2023-03-26T06:15:37;6.00;99.90
6377;DHT22;3221;48.858;10.128;2023-03-26T06:18:27;5.90;99.90
6377;DHT22;3221;48.858;10.128;2023-03-26T06:21:14;5.90;99.90
6377;DHT22;3221;48.858;10.128;2023-03-26T06:23:51;6.00;99.90
6377;DHT22;3221;48.858;10.128;2023-03-26T06:26:35;6.00;99.90
6377;DHT22;3221;48.858;10.128;2023-03-26T06:29:29;6.10;99.90
6377;DHT22;3221;48.858;10.128;2023-03-26T06:32:14;6.00;99.90
6377;DHT22;3221;48.858;10.128;2023-03-26T06:34:51;6.00;99.90
6377;DHT22;3221;48.858;10.128;2023-03-26T06:37:17;6.00;99.90
6377;DHT22;3221;48.858;10.128;2023-03-26T06:39:46;6.00;99.90
6377;DHT22;3221;48.858;10.128;2023-03-26T06:42:18;6.00;99.90
6377;DHT22;3221;48.858;10.128;2023-03-26T06:44:55;5.90;99.90
6377;DHT22;3221;48.858;10.128;2023-03-26T06:47:41;6.00;99.90
6377;DHT22;3221;48.858;10.128;2023-03-26T06:50:38;6.00;99.90
6377;DHT22;3221;48.858;10.128;2023-03-26T06:53:11;6.00;99.90
6377;DHT22;3221;48.858;10.128;2023-03-26T06:56:03;6.00;99.90
6377;DHT22;3221;48.858;10.128;2023-03-26T06:58:46;6.00;99.90
6377;DHT22;3221;48.858;10.128;2023-03-26T07:01:31;6.00;99.90
6377;DHT22;3221;48.858;10.128;2023-03-26T07:04:17;6.00;99.90
6377;DHT22;3221;48.858;10.128;2023-03-26T07:07:03;6.00;99.90
6377;DHT22;3221;48.858;10.128;2023-03-26T07:09:49;6.00;99.90
6377;DHT22;3221;48.858;10.128;2023-03-26T07:12:43;6.00;99.90
6377;DHT22;3221;48.858;10.128;2023-03-26T07:15:28;6.10;99.90
6377;DHT22;3221;48.858;10.128;2023-03-26T07:17:55;6.10;99.90
6377;DHT22;3221;48.858;10.128;2023-03-26T07:20:27;6.10;99.90
6377;DHT22;3221;48.858;10.128;2023-03-26T07:22:55;5.90;99.90
6377;DHT22;3221;48.858;10.128;2023-03-26T07:25:40;5.90;99.90
6377;DHT22;3221;48.858;10.128;2023-03-26T07:28:37;6.00;99.90
6377;DHT22;3221;48.858;10.128;2023-03-26T07:31:33;6.00;99.90
6377;DHT22;3221;48.858;10.128;2023-03-26T07:34:39;6.00;99.90
6377;DHT22;3221;48.858;10.128;2023-03-26T07:44:23;6.20;99.90
6377;DHT22;3221;48.858;10.128;2023-03-26T07:47:23;6.10;99.90
6377;DHT22;3221;48.858;10.128;2023-03-26T07:50:23;6.00;99.90
6377;DHT22;3221;48.858;10.128;2023-03-26T07:53:01;6.00;99.90
6377;DHT22;3221;48.858;10.128;2023-03-26T07:55:59;6.00;99.90
6377;DHT22;3221;48.858;10.128;2023-03-26T08:11:17;5.80;99.90
6377;DHT22;3221;48.858;10.128;2023-03-26T08:13:59;5.80;99.90
6377;DHT22;3221;48.858;10.128;2023-03-26T08:22:31;5.80;99.90
6377;DHT22;3221;48.858;10.128;2023-03-26T08:25:26;5.80;99.90
6377;DHT22;3221;48.858;10.128;2023-03-26T08:30:32;5.70;99.90
6377;DHT22;3221;48.858;10.128;2023-03-26T08:35:37;5.70;99.90
6377;DHT22;3221;48.858;10.128;2023-03-26T08:38:13;5.70;99.90
6377;DHT22;3221;48.858;10.128;2023-03-26T08:49:45;5.80;99.90
6377;DHT22;3221;48.858;10.128;2023-03-26T09:03:16;5.90;99.90
6377;DHT22;3221;48.858;10.128;2023-03-26T09:06:18;5.90;99.90
6377;DHT22;3221;48.858;10.128;2023-03-26T09:22:55;5.90;99.90
6377;DHT22;3221;48.858;10.128;2023-03-26T09:25:47;5.90;99.90
6377;DHT22;3221;48.858;10.128;2023-03-26T09:32:02;5.80;99.90
6377;DHT22;3221;48.858;10.128;2023-03-26T09:37:27;5.80;99.90
6377;DHT22;3221;48.858;10.128;2023-03-26T09:40:13;5.80;99.90
6377;DHT22;3221;48.858;10.128;2023-03-26T09:45:33;5.70;99.90
6377;DHT22;3221;48.858;10.128;2023-03-26T09:51:08;5.80;99.90
6377;DHT22;3221;48.858;10.128;2023-03-26T09:57:15;5.80;99.90
6377;DHT22;3221;48.858;10.128;2023-03-26T09:59:41;5.90;99.90
6377;DHT22;3221;48.858;10.128;2023-03-26T10:11:10;6.00;99.90
6377;DHT22;3221;48.858;10.128;2023-03-26T10:16:25;6.10;99.90
6377;DHT22;3221;48.858;10.128;2023-03-26T10:25:01;6.20;99.90
6377;DHT22;3221;48.858;10.128;2023-03-26T10:27:55;6.30;99.90
6377;DHT22;3221;48.858;10.128;2023-03-26T10:41:55;6.60;99.90
6377;DHT22;3221;48.858;10.128;2023-03-26T10:44:54;6.70;99.90
6377;DHT22;3221;48.858;10.128;2023-03-26T10:53:34;6.80;99.90
6377;DHT22;3221;48.858;10.128;2023-03-26T10:56:24;6.80;99.90
6377;DHT22;3221;48.858;10.128;2023-03-26T10:58:53;6.90;99.90
6377;DHT22;3221;48.858;10.128;2023-03-26T11:01:50;6.90;99.90
6377;DHT22;3221;48.858;10.128;2023-03-26T11:10:11;7.00;99.90
6377;DHT22;3221;48.858;10.128;2023-03-26T11:15:35;7.00;99.90
6377;DHT22;3221;48.858;10.128;2023-03-26T11:18:17;7.10;99.90
6377;DHT22;3221;48.858;10.128;2023-03-26T11:21:06;7.20;99.90
6377;DHT22;3221;48.858;10.128;2023-03-26T11:32:16;7.30;99.90
6377;DHT22;3221;48.858;10.128;2023-03-26T11:34:55;7.40;99.90
6377;DHT22;3221;48.858;10.128;2023-03-26T11:38:05;7.40;99.90
6377;DHT22;3221;48.858;10.128;2023-03-26T11:40:40;7.50;99.90
6377;DHT22;3221;48.858;10.128;2023-03-26T11:43:14;7.50;99.90
6377;DHT22;3221;48.858;10.128;2023-03-26T11:45:47;7.50;99.90
6377;DHT22;3221;48.858;10.128;2023-03-26T11:50:45;7.50;99.90
6377;DHT22;3221;48.858;10.128;2023-03-26T11:53:15;7.50;99.90
6377;DHT22;3221;48.858;10.128;2023-03-26T11:55:47;7.60;99.90
6377;DHT22;3221;48.858;10.128;2023-03-26T12:01:41;7.50;99.90
6377;DHT22;3221;48.858;10.128;2023-03-26T12:04:12;7.50;99.90
6377;DHT22;3221;48.858;10.128;2023-03-26T12:06:52;7.50;99.90
6377;DHT22;3221;48.858;10.128;2023-03-26T12:09:19;7.60;99.90
6377;DHT22;3221;48.858;10.128;2023-03-26T12:11:50;7.60;99.90
6377;DHT22;3221;48.858;10.128;2023-03-26T12:14:22;7.80;99.90
6377;DHT22;3221;48.858;10.128;2023-03-26T12:17:10;7.60;99.90
6377;DHT22;3221;48.858;10.128;2023-03-26T12:19:40;7.60;99.90
6377;DHT22;3221;48.858;10.128;2023-03-26T12:22:31;7.70;99.90
6377;DHT22;3221;48.858;10.128;2023-03-26T12:27:47;7.70;99.90
6377;DHT22;3221;48.858;10.128;2023-03-26T12:30:25;7.70;99.90
6377;DHT22;3221;48.858;10.128;2023-03-26T12:32:56;7.80;99.90
6377;DHT22;3221;48.858;10.128;2023-03-26T12:35:28;7.90;99.90
6377;DHT22;3221;48.858;10.128;2023-03-26T12:41:09;8.10;99.90
6377;DHT22;3221;48.858;10.128;2023-03-26T12:43:56;8.30;99.90
6377;DHT22;3221;48.858;10.128;2023-03-26T12:49:54;8.40;99.90
6377;DHT22;3221;48.858;10.128;2023-03-26T12:58:01;8.50;99.90
6377;DHT22;3221;48.858;10.128;2023-03-26T13:00:49;8.50;99.90
6377;DHT22;3221;48.858;10.128;2023-03-26T13:09:30;8.50;99.90
6377;DHT22;3221;48.858;10.128;2023-03-26T13:23:00;8.40;99.90
6377;DHT22;3221;48.858;10.128;2023-03-26T13:26:02;8.30;99.90
6377;DHT22;3221;48.858;10.128;2023-03-26T13:28:42;8.30;99.90
6377;DHT22;3221;48.858;10.128;2023-03-26T13:34:48;8.20;99.90
6377;DHT22;3221;48.858;10.128;2023-03-26T13:42:17;8.30;99.90
6377;DHT22;3221;48.858;10.128;2023-03-26T13:45:07;8.40;99.90
6377;DHT22;3221;48.858;10.128;2023-03-26T13:47:45;8.60;99.90
6377;DHT22;3221;48.858;10.128;2023-03-26T13:50:20;8.80;99.90
6377;DHT22;3221;48.858;10.128;2023-03-26T13:52:59;8.70;99.90
6377;DHT22;3221;48.858;10.128;2023-03-26T13:55:32;8.80;99.90
6377;DHT22;3221;48.858;10.128;2023-03-26T14:03:55;9.30;99.90
6377;DHT22;3221;48.858;10.128;2023-03-26T14:09:35;9.30;99.90
6377;DHT22;3221;48.858;10.128;2023-03-26T14:14:54;9.80;99.90
6377;DHT22;3221;48.858;10.128;2023-03-26T14:17:37;9.90;99.90
6377;DHT22;3221;48.858;10.128;2023-03-26T14:20:41;9.90;99.90
6377;DHT22;3221;48.858;10.128;2023-03-26T14:26:21;10.00;99.90
6377;DHT22;3221;48.858;10.128;2023-03-26T14:29:23;10.10;99.90
6377;DHT22;3221;48.858;10.128;2023-03-26T14:32:15;10.20;99.90
6377;DHT22;3221;48.858;10.128;2023-03-26T14:35:10;10.40;99.90
6377;DHT22;3221;48.858;10.128;2023-03-26T14:40:56;10.40;99.90
6377;DHT22;3221;48.858;10.128;2023-03-26T14:46:32;10.60;99.90
6377;DHT22;3221;48.858;10.128;2023-03-26T14:49:34;10.80;99.90
6377;DHT22;3221;48.858;10.128;2023-03-26T14:52:17;10.70;99.90
6377;DHT22;3221;48.858;10.128;2023-03-26T14:54:49;10.80;99.90
6377;DHT22;3221;48.858;10.128;2023-03-26T15:06:25;10.80;99.90
6377;DHT22;3221;48.858;10.128;2023-03-26T15:18:15;10.90;99.90
6377;DHT22;3221;48.858;10.128;2023-03-26T15:43:19;10.10;99.90
6377;DHT22;3221;48.858;10.128;2023-03-26T15:53:59;9.80;99.90
6377;DHT22;3221;48.858;10.128;2023-03-26T16:07:43;9.20;99.90
6377;DHT22;3221;48.858;10.128;2023-03-26T16:10:22;9.10;99.90
6377;DHT22;3221;48.858;10.128;2023-03-26T16:32:21;8.60;99.90
6377;DHT22;3221;48.858;10.128;2023-03-26T16:37:46;8.50;99.90
6377;DHT22;3221;48.858;10.128;2023-03-26T16:48:21;8.40;99.90
6377;DHT22;3221;48.858;10.128;2023-03-26T16:59:25;8.40;99.90
6377;DHT22;3221;48.858;10.128;2023-03-26T17:02:18;8.30;99.90
6377;DHT22;3221;48.858;10.128;2023-03-26T17:04:49;8.30;99.90
6377;DHT22;3221;48.858;10.128;2023-03-26T17:07:22;8.30;99.90
6377;DHT22;3221;48.858;10.128;2023-03-26T17:15:06;8.50;99.90
6377;DHT22;3221;48.858;10.128;2023-03-26T17:20:51;8.20;99.90
6377;DHT22;3221;48.858;10.128;2023-03-26T17:23:35;8.20;99.90
6377;DHT22;3221;48.858;10.128;2023-03-26T17:29:06;8.20;99.90
6377;DHT22;3221;48.858;10.128;2023-03-26T17:31:56;8.10;99.90
6377;DHT22;3221;48.858;10.128;2023-03-26T17:36:58;8.00;99.90
6377;DHT22;3221;48.858;10.128;2023-03-26T17:44:42;7.90;99.90
6377;DHT22;3221;48.858;10.128;2023-03-26T17:47:38;7.90;99.90
6377;DHT22;3221;48.858;10.128;2023-03-26T17:50:16;7.80;99.90
6377;DHT22;3221;48.858;10.128;2023-03-26T17:53:09;7.80;99.90
6377;DHT22;3221;48.858;10.128;2023-03-26T17:55:39;7.90;99.90
6377;DHT22;3221;48.858;10.128;2023-03-26T17:58:26;7.70;99.90
6377;DHT22;3221;48.858;10.128;2023-03-26T18:03:50;7.60;99.90
6377;DHT22;3221;48.858;10.128;2023-03-26T18:17:46;7.50;99.90
6377;DHT22;3221;48.858;10.128;2023-03-26T18:20:22;7.40;99.90
6377;DHT22;3221;48.858;10.128;2023-03-26T18:22:50;7.40;99.90
6377;DHT22;3221;48.858;10.128;2023-03-26T18:25:24;7.30;99.90
6377;DHT22;3221;48.858;10.128;2023-03-26T18:27:53;7.30;99.90
6377;DHT22;3221;48.858;10.128;2023-03-26T18:30:22;7.30;99.90
6377;DHT22;3221;48.858;10.128;2023-03-26T18:33:13;7.20;99.90
6377;DHT22;3221;48.858;10.128;2023-03-26T18:35:48;7.30;99.90
6377;DHT22;3221;48.858;10.128;2023-03-26T18:38:18;7.20;99.90
6377;DHT22;3221;48.858;10.128;2023-03-26T18:41:05;7.20;99.90
6377;DHT22;3221;48.858;10.128;2023-03-26T18:43:33;7.20;99.90
6377;DHT22;3221;48.858;10.128;2023-03-26T18:46:12;7.10;99.90
6377;DHT22;3221;48.858;10.128;2023-03-26T18:48:40;7.20;99.90
6377;DHT22;3221;48.858;10.128;2023-03-26T18:51:07;7.20;99.90
6377;DHT22;3221;48.858;10.128;2023-03-26T18:53:39;7.20;99.90
6377;DHT22;3221;48.858;10.128;2023-03-26T18:56:19;7.20;99.90
6377;DHT22;3221;48.858;10.128;2023-03-26T18:58:50;7.10;99.90
6377;DHT22;3221;48.858;10.128;2023-03-26T19:01:17;7.20;99.90
6377;DHT22;3221;48.858;10.128;2023-03-26T19:03:52;7.20;99.90
6377;DHT22;3221;48.858;10.128;2023-03-26T19:06:20;7.00;99.90
6377;DHT22;3221;48.858;10.128;2023-03-26T19:08:47;7.00;99.90
6377;DHT22;3221;48.858;10.128;2023-03-26T19:11:16;7.10;99.90
6377;DHT22;3221;48.858;10.128;2023-03-26T19:13:43;7.10;99.90
6377;DHT22;3221;48.858;10.128;2023-03-26T19:16:21;7.00;99.90
6377;DHT22;3221;48.858;10.128;2023-03-26T19:18:50;7.00;99.90
6377;DHT22;3221;48.858;10.128;2023-03-26T19:21:19;7.10;99.90
6377;DHT22;3221;48.858;10.128;2023-03-26T19:23:50;7.10;99.90
6377;DHT22;3221;48.858;10.128;2023-03-26T19:26:17;7.00;99.90
6377;DHT22;3221;48.858;10.128;2023-03-26T19:28:49;7.00;99.90
6377;DHT22;3221;48.858;10.128;2023-03-26T19:31:26;7.00;99.90
6377;DHT22;3221;48.858;10.128;2023-03-26T19:34:13;7.00;99.90
6377;DHT22;3221;48.858;10.128;2023-03-26T19:36:56;6.90;99.90
6377;DHT22;3221;48.858;10.128;2023-03-26T19:42:05;7.00;99.90
6377;DHT22;3221;48.858;10.128;2023-03-26T19:44:32;6.90;99.90
6377;DHT22;3221;48.858;10.128;2023-03-26T19:47:25;6.90;99.90
6377;DHT22;3221;48.858;10.128;2023-03-26T19:51:03;6.90;99.90
6377;DHT22;3221;48.858;10.128;2023-03-26T19:53:35;6.80;99.90
6377;DHT22;3221;48.858;10.128;2023-03-26T19:56:13;6.80;99.90
6377;DHT22;3221;48.858;10.128;2023-03-26T19:58:41;6.90;99.90
6377;DHT22;3221;48.858;10.128;2023-03-26T20:01:28;6.90;99.90
6377;DHT22;3221;48.858;10.128;2023-03-26T20:04:00;6.80;99.90
6377;DHT22;3221;48.858;10.128;2023-03-26T20:06:27;6.80;99.90
6377;DHT22;3221;48.858;10.128;2023-03-26T20:09:09;6.80;99.90
6377;DHT22;3221;48.858;10.128;2023-03-26T20:11:37;6.80;99.90
6377;DHT22;3221;48.858;10.128;2023-03-26T20:14:12;6.80;99.90
6377;DHT22;3221;48.858;10.128;2023-03-26T20:16:39;6.80;99.90
6377;DHT22;3221;48.858;10.128;2023-03-26T20:19:09;6.80;99.90
6377;DHT22;3221;48.858;10.128;2023-03-26T20:21:36;6.80;99.90
6377;DHT22;3221;48.858;10.128;2023-03-26T20:24:15;6.70;99.90
6377;DHT22;3221;48.858;10.128;2023-03-26T20:26:44;6.70;99.90
6377;DHT22;3221;48.858;10.128;2023-03-26T20:29:12;6.70;99.90
6377;DHT22;3221;48.858;10.128;2023-03-26T20:31:39;6.70;99.90
6377;DHT22;3221;48.858;10.128;2023-03-26T20:34:19;6.70;99.90
6377;DHT22;3221;48.858;10.128;2023-03-26T20:36:47;6.70;99.90
6377;DHT22;3221;48.858;10.128;2023-03-26T20:39:24;6.60;99.90
6377;DHT22;3221;48.858;10.128;2023-03-26T20:41:52;6.60;99.90
6377;DHT22;3221;48.858;10.128;2023-03-26T20:44:20;6.60;99.90
6377;DHT22;3221;48.858;10.128;2023-03-26T20:46:48;6.70;99.90
6377;DHT22;3221;48.858;10.128;2023-03-26T20:49:16;6.70;99.90
6377;DHT22;3221;48.858;10.128;2023-03-26T20:51:44;6.70;99.90
6377;DHT22;3221;48.858;10.128;2023-03-26T20:54:20;6.60;99.90
6377;DHT22;3221;48.858;10.128;2023-03-26T20:56:47;6.60;99.90
6377;DHT22;3221;48.858;10.128;2023-03-26T20:59:20;6.50;99.90
6377;DHT22;3221;48.858;10.128;2023-03-26T21:01:49;6.60;99.90
6377;DHT22;3221;48.858;10.128;2023-03-26T21:04:17;6.50;99.90
6377;DHT22;3221;48.858;10.128;2023-03-26T21:06:45;6.50;99.90
6377;DHT22;3221;48.858;10.128;2023-03-26T21:09:13;6.50;99.90
6377;DHT22;3221;48.858;10.128;2023-03-26T21:11:56;6.50;99.90
6377;DHT22;3221;48.858;10.128;2023-03-26T21:14:33;6.50;99.90
6377;DHT22;3221;48.858;10.128;2023-03-26T21:17:06;6.50;99.90
6377;DHT22;3221;48.858;10.128;2023-03-26T21:19:36;6.50;99.90
6377;DHT22;3221;48.858;10.128;2023-03-26T21:25:07;6.60;99.90
6377;DHT22;3221;48.858;10.128;2023-03-26T21:30:18;6.60;99.90
6377;DHT22;3221;48.858;10.128;2023-03-26T21:32:45;6.50;99.90
6377;DHT22;3221;48.858;10.128;2023-03-26T21:35:13;6.50;99.90
6377;DHT22;3221;48.858;10.128;2023-03-26T21:37:41;6.50;99.90
6377;DHT22;3221;48.858;10.128;2023-03-26T21:40:12;6.60;99.90
6377;DHT22;3221;48.858;10.128;2023-03-26T21:42:41;6.50;99.90
6377;DHT22;3221;48.858;10.128;2023-03-26T21:45:09;6.50;99.90
6377;DHT22;3221;48.858;10.128;2023-03-26T21:47:37;6.40;99.90
6377;DHT22;3221;48.858;10.128;2023-03-26T21:50:05;6.40;99.90
6377;DHT22;3221;48.858;10.128;2023-03-26T21:52:33;6.40;99.90
6377;DHT22;3221;48.858;10.128;2023-03-26T21:55:00;6.40;99.90
6377;DHT22;3221;48.858;10.128;2023-03-26T21:58:18;6.40;99.90
6377;DHT22;3221;48.858;10.128;2023-03-26T22:00:28;6.50;99.90
6377;DHT22;3221;48.858;10.128;2023-03-26T22:06:10;6.40;99.90
6377;DHT22;3221;48.858;10.128;2023-03-26T22:08:40;6.50;99.90
6377;DHT22;3221;48.858;10.128;2023-03-26T22:11:09;6.40;99.90
6377;DHT22;3221;48.858;10.128;2023-03-26T22:13:36;6.40;99.90
6377;DHT22;3221;48.858;10.128;2023-03-26T22:16:06;6.50;99.90
6377;DHT22;3221;48.858;10.128;2023-03-26T22:18:34;6.40;99.90
6377;DHT22;3221;48.858;10.128;2023-03-26T22:21:01;6.40;99.90
6377;DHT22;3221;48.858;10.128;2023-03-26T22:23:28;6.30;99.90
6377;DHT22;3221;48.858;10.128;2023-03-26T22:25:59;6.40;99.90
6377;DHT22;3221;48.858;10.128;2023-03-26T22:28:26;6.40;99.90
6377;DHT22;3221;48.858;10.128;2023-03-26T22:30:54;6.40;99.90
6377;DHT22;3221;48.858;10.128;2023-03-26T22:33:21;6.40;99.90
6377;DHT22;3221;48.858;10.128;2023-03-26T22:35:48;6.40;99.90
6377;DHT22;3221;48.858;10.128;2023-03-26T22:38:15;6.30;99.90
6377;DHT22;3221;48.858;10.128;2023-03-26T22:40:42;6.30;99.90
6377;DHT22;3221;48.858;10.128;2023-03-26T22:43:09;6.30;99.90
6377;DHT22;3221;48.858;10.128;2023-03-26T22:45:37;6.30;99.90
6377;DHT22;3221;48.858;10.128;2023-03-26T22:48:04;6.30;99.90
6377;DHT22;3221;48.858;10.128;2023-03-26T22:50:31;6.30;99.90
6377;DHT22;3221;48.858;10.128;2023-03-26T22:52:58;6.20;99.90
6377;DHT22;3221;48.858;10.128;2023-03-26T22:55:25;6.20;99.90
6377;DHT22;3221;48.858;10.128;2023-03-26T22:57:55;6.20;99.90
6377;DHT22;3221;48.858;10.128;2023-03-26T23:00:22;6.20;99.90
6377;DHT22;3221;48.858;10.128;2023-03-26T23:02:53;6.20;99.90
6377;DHT22;3221;48.858;10.128;2023-03-26T23:05:21;6.20;99.90
6377;DHT22;3221;48.858;10.128;2023-03-26T23:07:49;6.20;99.90